Terminal Aerodrome Forecast
Issued by NWS Boston, MA

Current Version | Previous Version | Text Only | Print | Product List | Glossary On
Versions: 1 2 3 4 5 6 7 8 9 10 11 12 13 14 15 16 17 18 19 20 21 22 23 24 25 26 27 28 29 30 31 32 33 34 35 36 37 38 39 40 41 42 43 44 45 46 47 48
580
FTUS41 KBOX 131736
TAFBDL
TAF
KBDL 131736Z 1318/1424 20007KT P6SM SCT070
     FM140900 17004KT P6SM VCSH OVC050
     FM141100 17005KT P6SM VCSH OVC030
     FM141300 17006KT 6SM -SHRA BR OVC015
     FM141600 17007KT P6SM VCSH BKN010
     FM142300 15005KT 6SM BR VCSH OVC008=

USA.gov is the U.S. government's official web portal to all federal, state and local government web resources and services.